Shaftsburg, Michigan
Current Conditions -  °F | °C
As of 3:03 PM on Thursday 18 Dec 2014 (Local Time) from KLAN Reporting Station
Freezing Rain Freezing Rain  
Wind Chill: 25°   Ceiling: 800
Heat Index: 31°   Visibility: 3mi
Dew Point: 29°   Wind: 6mph
Humidity: 92%   Direction: 290°WNW
Pressure: 30.16"   Gusts: NA
Location:  42.8°N, 84.29°W
Report Text: KLAN 182003Z 29005KT 3SM -FZRA BR BKN008 OVC012 M01/M02 A3016 RMK AO2 FZRAB1955 CIG 005V011 P0000 I1001 T10061017
Loading
Personal Weather Stations






























Interactive Weather Map New forecast layout! Learn more

10-Day Weather Forecast

Advertisements
Track Severe Weather on mobile